Time;durP1;ratioP1;P1;durP2;ratioP2;P2;SDS_P1;SDS_P2;PMS_P1;PMS_P2;Temp;Humidity;BMP_temperature;BMP_pressure;BME280_temperature;BME280_humidity;BME280_pressure;Samples;Min_cycle;Max_cycle;Signal;HPM_P1;HPM_P2
2024/04/25 00:01:36;;;;;;;;;;;19.50;58.10;;;;;;1538373;75;1149;-69
2024/04/25 00:03:39;;;;;;;;;;;19.90;58.40;;;;;;1537743;76;1348;-71
2024/04/25 00:05:41;;;;;;;;;;;19.50;58.20;;;;;;1541127;76;744;-70
2024/04/25 00:07:42;;;;;;;;;;;19.40;58.10;;;;;;1537160;76;1591;-70
2024/04/25 00:09:44;;;;;;;;;;;19.50;58.20;;;;;;1536330;76;697;-71
2024/04/25 00:11:46;;;;;;;;;;;19.50;58.20;;;;;;1534399;76;1164;-72
2024/04/25 00:13:48;;;;;;;;;;;19.40;58.10;;;;;;1540480;76;1947;-70
2024/04/25 00:15:50;;;;;;;;;;;19.50;58.20;;;;;;1530627;75;762;-70
2024/04/25 00:17:52;;;;;;;;;;;19.40;58.10;;;;;;1536317;76;706;-70
2024/04/25 00:19:54;;;;;;;;;;;19.40;58.20;;;;;;1534121;76;731;-70
2024/04/25 00:21:56;;;;;;;;;;;19.40;58.20;;;;;;1531591;76;1659;-70
2024/04/25 00:23:59;;;;;;;;;;;19.40;58.20;;;;;;1540799;76;864;-71
2024/04/25 00:26:01;;;;;;;;;;;19.50;58.30;;;;;;1541626;75;2041;-70
2024/04/25 00:28:03;;;;;;;;;;;19.40;58.20;;;;;;1535380;76;643;-70
2024/04/25 00:30:05;;;;;;;;;;;19.40;58.20;;;;;;1536817;76;671;-71
2024/04/25 00:32:07;;;;;;;;;;;19.40;58.20;;;;;;1553830;74;1190;-69
2024/04/25 00:34:09;;;;;;;;;;;19.50;58.30;;;;;;1553502;74;1936;-69
2024/04/25 00:36:11;;;;;;;;;;;19.50;58.40;;;;;;1560824;74;1551;-70
2024/04/25 00:38:13;;;;;;;;;;;19.40;58.20;;;;;;1563065;74;700;-72
2024/04/25 00:40:15;;;;;;;;;;;19.50;58.40;;;;;;1553029;74;650;-70
2024/04/25 00:42:20;;;;;;;;;;;19.40;58.20;;;;;;1548928;74;1074;-69
2024/04/25 00:44:22;;;;;;;;;;;19.40;58.30;;;;;;1557379;74;689;-69
2024/04/25 00:46:24;;;;;;;;;;;19.40;58.30;;;;;;1554332;74;752;-72
2024/04/25 00:48:26;;;;;;;;;;;19.40;58.30;;;;;;1551408;74;715;-69
2024/04/25 00:50:28;;;;;;;;;;;19.70;58.50;;;;;;1550131;74;1561;-69
2024/04/25 00:52:30;;;;;;;;;;;19.40;58.30;;;;;;1566404;74;661;-69
2024/04/25 00:54:32;;;;;;;;;;;19.40;58.30;;;;;;1553591;74;1936;-68
2024/04/25 00:56:34;;;;;;;;;;;19.40;58.40;;;;;;1558876;74;701;-69
2024/04/25 00:58:36;;;;;;;;;;;19.90;58.60;;;;;;1550173;74;688;-68
2024/04/25 01:00:38;;;;;;;;;;;19.40;58.40;;;;;;1550870;74;1142;-70
2024/04/25 01:02:40;;;;;;;;;;;19.50;58.50;;;;;;1552431;74;724;-69
2024/04/25 01:04:42;;;;;;;;;;;19.40;58.40;;;;;;1554848;74;1552;-70
2024/04/25 01:06:44;;;;;;;;;;;19.40;58.40;;;;;;1550652;74;755;-67
2024/04/25 01:08:46;;;;;;;;;;;19.40;58.40;;;;;;1549084;74;702;-70
2024/04/25 01:10:50;;;;;;;;;;;19.40;58.40;;;;;;1550954;74;1142;-69
2024/04/25 01:12:51;;;;;;;;;;;19.40;58.40;;;;;;1552579;74;1833;-70
2024/04/25 01:14:53;;;;;;;;;;;19.40;58.30;;;;;;1557637;74;1942;-69
2024/04/25 01:16:55;;;;;;;;;;;19.40;58.30;;;;;;1552155;74;717;-71
2024/04/25 01:18:57;;;;;;;;;;;19.40;58.40;;;;;;1545724;74;1502;-70
2024/04/25 01:20:59;;;;;;;;;;;19.40;58.30;;;;;;1555509;74;1145;-69
2024/04/25 01:23:01;;;;;;;;;;;19.40;58.40;;;;;;1549877;74;677;-69
2024/04/25 01:25:03;;;;;;;;;;;19.40;58.40;;;;;;1560068;74;705;-69
2024/04/25 01:27:05;;;;;;;;;;;19.40;58.40;;;;;;1549731;74;677;-71
2024/04/25 01:29:07;;;;;;;;;;;19.40;58.40;;;;;;1559013;74;691;-69
2024/04/25 01:31:09;;;;;;;;;;;19.40;58.40;;;;;;1558177;74;1208;-70
2024/04/25 01:33:11;;;;;;;;;;;19.50;58.50;;;;;;1556408;74;1489;-70
2024/04/25 01:35:13;;;;;;;;;;;19.70;58.60;;;;;;1556442;74;1943;-69
2024/04/25 01:37:15;;;;;;;;;;;19.50;58.40;;;;;;1551351;74;707;-69
2024/04/25 01:39:17;;;;;;;;;;;19.90;58.60;;;;;;1556852;74;734;-71
2024/04/25 01:41:19;;;;;;;;;;;19.40;58.40;;;;;;1561915;74;1166;-71
2024/04/25 01:43:21;;;;;;;;;;;19.40;58.40;;;;;;1551370;74;666;-70
2024/04/25 01:45:23;;;;;;;;;;;19.90;58.70;;;;;;1555634;74;721;-68
2024/04/25 01:47:24;;;;;;;;;;;19.40;58.40;;;;;;1546791;74;1412;-69
2024/04/25 01:49:26;;;;;;;;;;;19.40;58.40;;;;;;1545439;74;753;-70
2024/04/25 01:51:29;;;;;;;;;;;19.40;58.40;;;;;;1552373;74;1097;-68
2024/04/25 01:53:31;;;;;;;;;;;19.40;58.40;;;;;;1556418;74;687;-69
2024/04/25 01:55:32;;;;;;;;;;;19.40;58.40;;;;;;1553550;74;1940;-71
2024/04/25 01:57:34;;;;;;;;;;;19.40;58.40;;;;;;1553964;74;674;-68
2024/04/25 01:59:36;;;;;;;;;;;19.40;58.40;;;;;;1568092;74;749;-70
2024/04/25 02:01:38;;;;;;;;;;;19.40;58.40;;;;;;1548302;74;1597;-69
2024/04/25 02:03:42;;;;;;;;;;;19.40;58.40;;;;;;1555970;74;741;-69
2024/04/25 02:05:43;;;;;;;;;;;19.50;58.60;;;;;;1551837;74;1789;-70
2024/04/25 02:07:46;;;;;;;;;;;19.40;58.40;;;;;;1556671;74;651;-69
2024/04/25 02:09:47;;;;;;;;;;;19.50;58.50;;;;;;1560963;74;665;-69
2024/04/25 02:11:49;;;;;;;;;;;19.40;58.40;;;;;;1568882;74;1127;-70
2024/04/25 02:13:51;;;;;;;;;;;19.40;58.40;;;;;;1557602;74;1916;-71
2024/04/25 02:15:53;;;;;;;;;;;19.40;58.40;;;;;;1560982;74;1301;-71
2024/04/25 02:17:55;;;;;;;;;;;19.40;58.50;;;;;;1555290;74;714;-69
2024/04/25 02:19:57;;;;;;;;;;;19.40;58.40;;;;;;1551109;74;718;-70
2024/04/25 02:26:40;;;;;;;;;;;19.40;58.50;;;;;;1557789;74;757;-69
2024/04/25 02:28:42;;;;;;;;;;;19.40;58.50;;;;;;1551968;74;1578;-70
2024/04/25 02:30:44;;;;;;;;;;;19.40;58.50;;;;;;1573690;74;1191;-68
2024/04/25 02:32:46;;;;;;;;;;;19.40;58.50;;;;;;1560836;74;741;-69
2024/04/25 02:34:48;;;;;;;;;;;19.40;58.50;;;;;;1560024;74;1935;-69
2024/04/25 02:36:50;;;;;;;;;;;19.40;58.50;;;;;;1565378;74;874;-69
2024/04/25 02:38:51;;;;;;;;;;;19.40;58.50;;;;;;1560877;74;753;-69
2024/04/25 02:40:53;;;;;;;;;;;19.40;58.60;;;;;;1557967;74;1130;-70
2024/04/25 02:42:55;;;;;;;;;;;19.40;58.50;;;;;;1556503;74;1543;-70
2024/04/25 02:44:57;;;;;;;;;;;19.40;58.60;;;;;;1559166;74;681;-69
2024/04/25 02:46:59;;;;;;;;;;;19.40;58.60;;;;;;1560720;74;681;-70
2024/04/25 02:49:01;;;;;;;;;;;19.40;58.60;;;;;;1555242;74;675;-70
2024/04/25 02:51:03;;;;;;;;;;;19.50;58.70;;;;;;1566184;74;1137;-68
2024/04/25 02:53:05;;;;;;;;;;;19.40;58.70;;;;;;1556010;74;766;-69
2024/04/25 02:55:07;;;;;;;;;;;19.80;58.90;;;;;;1552676;74;1934;-69
2024/04/25 02:57:09;;;;;;;;;;;19.50;58.90;;;;;;1576957;74;1560;-69
2024/04/25 02:59:10;;;;;;;;;;;19.40;58.70;;;;;;1557721;74;663;-70
2024/04/25 03:01:12;;;;;;;;;;;19.40;58.60;;;;;;1564182;74;1127;-70
2024/04/25 03:03:14;;;;;;;;;;;19.40;58.60;;;;;;1554138;74;676;-69
2024/04/25 03:05:16;;;;;;;;;;;19.40;58.60;;;;;;1556222;74;625;-70
2024/04/25 03:07:18;;;;;;;;;;;19.40;58.60;;;;;;1547593;74;718;-71
2024/04/25 03:09:20;;;;;;;;;;;19.40;58.50;;;;;;1522812;76;825;-69
2024/04/25 03:11:22;;;;;;;;;;;19.50;58.60;;;;;;1533348;76;1242;-70
2024/04/25 03:13:23;;;;;;;;;;;19.40;58.50;;;;;;1531010;76;734;-70
2024/04/25 03:15:25;;;;;;;;;;;19.40;58.50;;;;;;1551159;74;1940;-72
2024/04/25 03:17:28;;;;;;;;;;;19.50;58.60;;;;;;1557188;74;696;-70
2024/04/25 03:19:30;;;;;;;;;;;19.40;58.40;;;;;;1555637;74;674;-69
2024/04/25 03:21:33;;;;;;;;;;;19.40;58.40;;;;;;1548833;74;1145;-70
2024/04/25 03:23:35;;;;;;;;;;;19.40;58.40;;;;;;1554443;74;652;-69
2024/04/25 03:25:37;;;;;;;;;;;19.50;58.50;;;;;;1549586;74;1599;-68
2024/04/25 03:27:39;;;;;;;;;;;19.40;58.50;;;;;;1542766;74;829;-67
2024/04/25 03:29:41;;;;;;;;;;;19.50;58.50;;;;;;1542699;74;707;-69
2024/04/25 03:31:43;;;;;;;;;;;19.40;58.40;;;;;;1553465;74;1274;-70
2024/04/25 03:33:44;;;;;;;;;;;19.40;58.40;;;;;;1558806;74;746;-70
2024/04/25 03:35:46;;;;;;;;;;;19.50;58.50;;;;;;1554049;74;1927;-71
2024/04/25 03:37:48;;;;;;;;;;;19.40;58.40;;;;;;1550024;74;761;-69
2024/04/25 03:39:50;;;;;;;;;;;19.40;58.40;;;;;;1547789;74;1558;-70
2024/04/25 03:41:52;;;;;;;;;;;19.40;58.50;;;;;;1555511;74;1139;-70
2024/04/25 03:43:54;;;;;;;;;;;19.40;58.40;;;;;;1550466;74;816;-69
2024/04/25 03:45:56;;;;;;;;;;;19.50;58.50;;;;;;1548783;74;724;-69
2024/04/25 03:47:58;;;;;;;;;;;19.40;58.50;;;;;;1558803;74;794;-71
2024/04/25 03:50:00;;;;;;;;;;;19.40;58.40;;;;;;1556935;74;672;-69
2024/04/25 03:52:02;;;;;;;;;;;19.40;58.40;;;;;;1556780;74;1113;-69
2024/04/25 03:54:04;;;;;;;;;;;19.40;58.40;;;;;;1555880;74;1579;-69
2024/04/25 03:56:06;;;;;;;;;;;19.40;58.40;;;;;;1557551;74;1945;-69
2024/04/25 03:58:07;;;;;;;;;;;19.50;58.50;;;;;;1552461;74;658;-70
2024/04/25 04:00:09;;;;;;;;;;;19.40;58.40;;;;;;1558645;74;668;-67
2024/04/25 04:02:11;;;;;;;;;;;19.40;58.40;;;;;;1537744;74;1125;-70
2024/04/25 04:04:14;;;;;;;;;;;19.80;58.60;;;;;;1552424;74;657;-65
2024/04/25 04:06:19;;;;;;;;;;;19.40;58.40;;;;;;1548503;74;751;-68
2024/04/25 04:08:21;;;;;;;;;;;19.40;58.40;;;;;;1560662;74;1585;-69
2024/04/25 04:10:23;;;;;;;;;;;19.40;58.40;;;;;;1548489;74;1135;-66
2024/04/25 04:12:25;;;;;;;;;;;19.90;58.80;;;;;;1550617;74;750;-71
2024/04/25 04:14:27;;;;;;;;;;;19.40;58.60;;;;;;1542976;74;661;-69
2024/04/25 04:16:29;;;;;;;;;;;19.40;58.60;;;;;;1547792;74;1937;-69
2024/04/25 04:18:31;;;;;;;;;;;19.40;58.50;;;;;;1547212;74;688;-69
2024/04/25 04:20:34;;;;;;;;;;;20.00;58.80;;;;;;1555534;74;1125;-68
2024/04/25 04:22:36;;;;;;;;;;;19.40;58.40;;;;;;1555751;74;1711;-69
2024/04/25 04:24:38;;;;;;;;;;;19.50;58.50;;;;;;1552684;74;675;-68
2024/04/25 04:26:40;;;;;;;;;;;19.50;58.50;;;;;;1553009;74;797;-68
2024/04/25 04:28:41;;;;;;;;;;;19.40;58.40;;;;;;1559155;74;696;-68
2024/04/25 04:30:44;;;;;;;;;;;19.40;58.40;;;;;;1556802;74;1202;-69
2024/04/25 04:32:47;;;;;;;;;;;19.40;58.40;;;;;;1547349;74;646;-67
2024/04/25 04:34:49;;;;;;;;;;;19.50;58.50;;;;;;1566366;74;1915;-68
2024/04/25 04:36:50;;;;;;;;;;;19.40;58.40;;;;;;1560906;74;742;-66
2024/04/25 04:38:52;;;;;;;;;;;19.50;58.50;;;;;;1545202;74;718;-68
2024/04/25 04:40:54;;;;;;;;;;;19.40;58.40;;;;;;1544025;74;1133;-69
2024/04/25 04:42:56;;;;;;;;;;;19.40;58.50;;;;;;1548769;74;644;-68
2024/04/25 04:44:58;;;;;;;;;;;19.50;58.70;;;;;;1556232;74;762;-69
2024/04/25 04:47:00;;;;;;;;;;;19.40;58.70;;;;;;1543756;74;736;-71
2024/04/25 04:49:02;;;;;;;;;;;19.50;59.00;;;;;;1547988;74;1573;-70
2024/04/25 04:51:04;;;;;;;;;;;19.40;59.40;;;;;;1549323;74;1145;-69
2024/04/25 04:53:06;;;;;;;;;;;19.40;59.40;;;;;;1556907;74;670;-69
2024/04/25 04:55:08;;;;;;;;;;;19.50;59.50;;;;;;1546177;74;1918;-68
2024/04/25 04:57:10;;;;;;;;;;;19.50;59.40;;;;;;1551779;74;761;-68
2024/04/25 04:59:12;;;;;;;;;;;19.50;59.40;;;;;;1559625;74;707;-71
2024/04/25 05:01:14;;;;;;;;;;;19.50;59.50;;;;;;1557213;74;1129;-68
2024/04/25 05:03:16;;;;;;;;;;;20.00;59.60;;;;;;1554744;74;1528;-69
2024/04/25 05:05:21;;;;;;;;;;;19.50;59.50;;;;;;1557408;74;692;-74
2024/04/25 05:07:22;;;;;;;;;;;19.50;59.70;;;;;;1549131;74;1718;-70
2024/04/25 05:09:24;;;;;;;;;;;19.50;59.30;;;;;;1556104;74;738;-72
2024/04/25 05:11:27;;;;;;;;;;;19.50;59.50;;;;;;1558539;74;1135;-69
2024/04/25 05:13:29;;;;;;;;;;;19.50;59.40;;;;;;1572069;74;643;-68
2024/04/25 05:15:31;;;;;;;;;;;19.60;59.50;;;;;;1566087;74;1940;-68
2024/04/25 05:17:33;;;;;;;;;;;19.50;59.50;;;;;;1554677;74;1524;-69
2024/04/25 05:19:35;;;;;;;;;;;19.50;59.40;;;;;;1555009;74;677;-68
2024/04/25 05:21:37;;;;;;;;;;;19.50;59.40;;;;;;1547596;74;1233;-67
2024/04/25 05:23:38;;;;;;;;;;;19.40;59.30;;;;;;1561398;74;725;-70
2024/04/25 05:25:40;;;;;;;;;;;19.50;59.40;;;;;;1554994;74;695;-68
2024/04/25 05:27:42;;;;;;;;;;;19.50;59.30;;;;;;1557527;74;809;-68
2024/04/25 05:29:44;;;;;;;;;;;19.40;59.20;;;;;;1553831;74;747;-68
2024/04/25 05:31:46;;;;;;;;;;;19.50;59.30;;;;;;1554101;74;1594;-67
2024/04/25 05:33:48;;;;;;;;;;;19.50;59.20;;;;;;1565412;74;671;-68
2024/04/25 05:35:50;;;;;;;;;;;19.50;59.20;;;;;;1560423;74;1920;-67
2024/04/25 05:37:52;;;;;;;;;;;19.50;59.10;;;;;;1566960;74;783;-68
2024/04/25 05:39:54;;;;;;;;;;;19.50;59.20;;;;;;1560834;74;951;-69
2024/04/25 05:41:56;;;;;;;;;;;19.50;59.10;;;;;;1547329;74;1137;-70
2024/04/25 05:43:58;;;;;;;;;;;19.40;59.00;;;;;;1553493;74;785;-71
2024/04/25 05:46:00;;;;;;;;;;;19.50;59.10;;;;;;1548589;74;1323;-70
2024/04/25 05:48:02;;;;;;;;;;;19.50;59.00;;;;;;1550681;74;683;-67
2024/04/25 05:50:04;;;;;;;;;;;19.50;59.00;;;;;;1547543;74;887;-68
2024/04/25 05:52:05;;;;;;;;;;;19.50;59.00;;;;;;1552100;74;1153;-72
2024/04/25 05:54:08;;;;;;;;;;;19.50;58.90;;;;;;1552765;74;789;-73
2024/04/25 05:56:10;;;;;;;;;;;19.50;58.90;;;;;;1560990;74;1900;-73
2024/04/25 05:58:12;;;;;;;;;;;19.40;58.80;;;;;;1547657;74;798;-69
2024/04/25 06:00:14;;;;;;;;;;;19.40;58.80;;;;;;1549517;74;1562;-70
2024/04/25 06:02:15;;;;;;;;;;;19.40;58.70;;;;;;1549631;74;1085;-71
2024/04/25 06:04:17;;;;;;;;;;;19.50;58.80;;;;;;1556562;74;840;-71
2024/04/25 06:06:19;;;;;;;;;;;19.50;58.80;;;;;;1563648;74;720;-69
2024/04/25 06:08:21;;;;;;;;;;;19.50;58.80;;;;;;1550430;74;800;-68
2024/04/25 06:10:25;;;;;;;;;;;19.50;58.80;;;;;;1548796;74;729;-70
2024/04/25 06:12:27;;;;;;;;;;;19.50;58.80;;;;;;1547742;74;1134;-70
2024/04/25 06:14:29;;;;;;;;;;;19.50;58.80;;;;;;1556121;74;1579;-71
2024/04/25 06:16:31;;;;;;;;;;;19.40;58.60;;;;;;1549536;74;1952;-69
2024/04/25 06:18:33;;;;;;;;;;;19.40;58.60;;;;;;1561537;74;1001;-68
2024/04/25 06:20:35;;;;;;;;;;;19.60;58.70;;;;;;1561933;74;1121;-71
2024/04/25 06:22:36;;;;;;;;;;;19.40;58.60;;;;;;1555049;74;678;-69
2024/04/25 06:24:38;;;;;;;;;;;19.40;58.50;;;;;;1550702;75;673;-71
2024/04/25 06:26:41;;;;;;;;;;;19.40;58.50;;;;;;1566019;74;681;-69
2024/04/25 06:28:43;;;;;;;;;;;19.40;58.60;;;;;;1548560;74;1686;-70
2024/04/25 06:30:45;;;;;;;;;;;19.40;58.50;;;;;;1551333;74;1173;-71
2024/04/25 06:32:47;;;;;;;;;;;19.80;58.70;;;;;;1548967;74;809;-70
2024/04/25 06:34:50;;;;;;;;;;;19.40;58.50;;;;;;1544775;74;669;-68
2024/04/25 06:36:52;;;;;;;;;;;19.40;58.50;;;;;;1552541;74;1915;-67
2024/04/25 06:38:54;;;;;;;;;;;19.50;58.60;;;;;;1554854;74;704;-69
2024/04/25 06:40:56;;;;;;;;;;;19.40;58.50;;;;;;1555929;75;1153;-69
2024/04/25 06:42:58;;;;;;;;;;;19.40;58.50;;;;;;1547953;74;1565;-70
2024/04/25 06:45:00;;;;;;;;;;;19.40;58.40;;;;;;1563766;74;672;-69
2024/04/25 06:47:02;;;;;;;;;;;19.40;58.40;;;;;;1558519;74;688;-69
2024/04/25 06:49:04;;;;;;;;;;;19.40;58.40;;;;;;1547667;74;687;-68
2024/04/25 06:51:06;;;;;;;;;;;19.30;58.40;;;;;;1559145;74;1177;-70
2024/04/25 06:53:07;;;;;;;;;;;19.40;58.40;;;;;;1550517;74;689;-69
2024/04/25 06:55:09;;;;;;;;;;;19.40;58.40;;;;;;1569042;74;682;-69
2024/04/25 06:57:11;;;;;;;;;;;19.40;58.40;;;;;;1553801;74;1932;-70
2024/04/25 06:59:13;;;;;;;;;;;19.30;58.30;;;;;;1552172;74;674;-71
2024/04/25 07:01:15;;;;;;;;;;;19.40;58.40;;;;;;1551913;74;1123;-68
2024/04/25 07:03:17;;;;;;;;;;;19.80;58.50;;;;;;1555219;74;679;-68
2024/04/25 07:05:19;;;;;;;;;;;19.30;58.30;;;;;;1568712;74;729;-69
2024/04/25 07:07:21;;;;;;;;;;;19.40;58.30;;;;;;1551082;74;773;-69
2024/04/25 07:09:24;;;;;;;;;;;19.40;58.30;;;;;;1544331;74;794;-69
2024/04/25 07:11:26;;;;;;;;;;;19.30;58.30;;;;;;1557587;74;1690;-72
2024/04/25 07:13:28;;;;;;;;;;;19.40;58.30;;;;;;1549882;74;708;-68
2024/04/25 07:15:30;;;;;;;;;;;19.40;58.20;;;;;;1551405;74;732;-71
2024/04/25 07:17:31;;;;;;;;;;;19.40;58.20;;;;;;1556949;74;1932;-69
2024/04/25 07:19:33;;;;;;;;;;;19.40;58.20;;;;;;1562804;74;698;-68
2024/04/25 07:21:35;;;;;;;;;;;19.40;58.20;;;;;;1553620;74;1134;-68
2024/04/25 07:23:37;;;;;;;;;;;19.40;58.20;;;;;;1556534;74;1569;-69
2024/04/25 07:25:40;;;;;;;;;;;19.30;58.20;;;;;;1561237;74;645;-70
2024/04/25 07:27:42;;;;;;;;;;;19.30;58.20;;;;;;1554758;74;744;-69
2024/04/25 07:29:44;;;;;;;;;;;19.30;58.20;;;;;;1554226;74;800;-68
2024/04/25 07:31:46;;;;;;;;;;;19.30;58.10;;;;;;1552505;74;1087;-69
2024/04/25 07:33:48;;;;;;;;;;;19.30;58.20;;;;;;1554060;74;720;-70
2024/04/25 07:35:50;;;;;;;;;;;19.30;58.20;;;;;;1563215;74;1914;-70
2024/04/25 07:37:53;;;;;;;;;;;19.40;58.10;;;;;;1552512;74;1612;-67
2024/04/25 07:39:55;;;;;;;;;;;19.30;58.20;;;;;;1566094;74;730;-68
2024/04/25 07:41:57;;;;;;;;;;;19.30;58.10;;;;;;1561788;74;1125;-69
2024/04/25 07:43:59;;;;;;;;;;;19.30;58.10;;;;;;1556213;74;682;-69
2024/04/25 07:46:01;;;;;;;;;;;19.30;58.10;;;;;;1548241;74;711;-70
2024/04/25 07:48:03;;;;;;;;;;;19.30;58.10;;;;;;1552345;74;787;-69
2024/04/25 07:50:05;;;;;;;;;;;19.30;58.10;;;;;;1547156;74;703;-69
2024/04/25 07:52:07;;;;;;;;;;;19.80;58.20;;;;;;1549552;74;1597;-71
2024/04/25 07:54:09;;;;;;;;;;;19.30;58.00;;;;;;1550919;74;803;-69
2024/04/25 07:56:11;;;;;;;;;;;19.30;58.00;;;;;;1550852;74;1917;-69
2024/04/25 07:58:13;;;;;;;;;;;19.30;58.00;;;;;;1551427;74;724;-70
2024/04/25 08:00:15;;;;;;;;;;;19.30;58.00;;;;;;1546183;74;688;-67
2024/04/25 08:02:17;;;;;;;;;;;19.30;58.00;;;;;;1556690;74;1099;-70
2024/04/25 08:04:19;;;;;;;;;;;19.30;58.00;;;;;;1551718;74;689;-69
2024/04/25 08:06:21;;;;;;;;;;;19.30;58.00;;;;;;1547856;74;1586;-68
2024/04/25 08:08:23;;;;;;;;;;;19.30;58.00;;;;;;1563814;74;655;-69
2024/04/25 08:10:26;;;;;;;;;;;19.30;58.00;;;;;;1552455;75;1158;-68
2024/04/25 08:12:28;;;;;;;;;;;19.30;58.00;;;;;;1551277;74;715;-69
2024/04/25 08:14:30;;;;;;;;;;;19.30;58.00;;;;;;1556931;74;741;-69
2024/04/25 08:16:32;;;;;;;;;;;19.30;57.90;;;;;;1554577;74;1966;-69
2024/04/25 08:18:34;;;;;;;;;;;19.30;57.90;;;;;;1557047;74;698;-69
2024/04/25 08:20:36;;;;;;;;;;;19.30;57.90;;;;;;1559094;74;1557;-68
2024/04/25 08:22:38;;;;;;;;;;;19.30;57.90;;;;;;1559464;74;669;-69
2024/04/25 08:24:40;;;;;;;;;;;19.30;57.90;;;;;;1544010;74;686;-68
2024/04/25 08:26:42;;;;;;;;;;;19.30;57.90;;;;;;1553899;74;742;-72
2024/04/25 08:28:44;;;;;;;;;;;19.30;57.90;;;;;;1553111;74;751;-71
2024/04/25 08:30:46;;;;;;;;;;;19.30;57.90;;;;;;1544798;74;1142;-69
2024/04/25 08:32:48;;;;;;;;;;;19.30;57.90;;;;;;1546588;74;744;-72
2024/04/25 08:34:50;;;;;;;;;;;19.30;57.90;;;;;;1547346;74;1575;-70
2024/04/25 08:36:51;;;;;;;;;;;19.30;57.90;;;;;;1551057;74;1928;-70
2024/04/25 08:38:53;;;;;;;;;;;19.30;57.90;;;;;;1543119;74;727;-70
2024/04/25 08:40:57;;;;;;;;;;;19.30;57.90;;;;;;1548555;74;1140;-70
2024/04/25 08:42:59;;;;;;;;;;;19.30;57.80;;;;;;1541468;74;1205;-71
2024/04/25 08:45:01;;;;;;;;;;;19.20;57.70;;;;;;1546005;74;772;-71
2024/04/25 08:47:02;;;;;;;;;;;19.30;57.80;;;;;;1549810;74;672;-70
2024/04/25 08:49:04;;;;;;;;;;;19.30;57.80;;;;;;1541398;74;1584;-68
2024/04/25 08:51:07;;;;;;;;;;;19.30;57.80;;;;;;1522587;75;1188;-68
2024/04/25 08:53:09;;;;;;;;;;;19.30;57.80;;;;;;1546287;74;682;-67
2024/04/25 08:55:11;;;;;;;;;;;19.30;57.80;;;;;;1549428;75;781;-70
2024/04/25 08:57:13;;;;;;;;;;;19.30;57.80;;;;;;1516167;75;1943;-68
2024/04/25 08:59:16;;;;;;;;;;;19.30;57.70;;;;;;1543590;74;782;-70
2024/04/25 09:01:18;;;;;;;;;;;19.30;57.70;;;;;;1544836;74;1112;-69
2024/04/25 09:03:21;;;;;;;;;;;19.30;57.70;;;;;;1543200;74;1574;-70
2024/04/25 09:05:23;;;;;;;;;;;19.30;57.70;;;;;;1541843;74;1043;-70
2024/04/25 09:07:27;;;;;;;;;;;19.30;57.70;;;;;;1543530;74;1048;-70
2024/04/25 09:09:28;;;;;;;;;;;19.30;57.70;;;;;;1556226;74;1684;-71
2024/04/25 09:11:30;;;;;;;;;;;19.30;57.70;;;;;;1540973;74;1114;-69
2024/04/25 09:13:32;;;;;;;;;;;19.30;57.70;;;;;;1548612;74;750;-70
2024/04/25 09:15:34;;;;;;;;;;;19.30;57.70;;;;;;1548050;74;729;-69
2024/04/25 09:17:36;;;;;;;;;;;19.30;57.60;;;;;;1555323;74;1946;-70
2024/04/25 09:19:40;;;;;;;;;;;19.20;57.60;;;;;;1562270;74;696;-67
2024/04/25 09:21:41;;;;;;;;;;;19.30;57.60;;;;;;1551665;74;1733;-70
2024/04/25 09:23:43;;;;;;;;;;;19.30;57.60;;;;;;1555048;74;699;-68
2024/04/25 09:25:45;;;;;;;;;;;19.30;57.60;;;;;;1546207;74;686;-69
2024/04/25 09:27:47;;;;;;;;;;;19.30;57.60;;;;;;1556082;74;635;-69
2024/04/25 09:29:53;;;;;;;;;;;19.30;57.60;;;;;;1559767;74;800;-68
2024/04/25 09:31:54;;;;;;;;;;;19.30;57.60;;;;;;1565161;74;1675;-69
2024/04/25 09:33:58;;;;;;;;;;;19.30;57.60;;;;;;1535459;76;729;-69
2024/04/25 09:36:00;;;;;;;;;;;19.30;57.60;;;;;;1534446;76;884;-71
2024/04/25 09:38:02;;;;;;;;;;;19.30;57.60;;;;;;1562192;74;1930;-68
2024/04/25 09:40:04;;;;;;;;;;;19.30;57.50;;;;;;1561423;74;636;-67
2024/04/25 09:42:06;;;;;;;;;;;19.30;57.60;;;;;;1584434;74;1107;-67
2024/04/25 09:44:08;;;;;;;;;;;19.30;57.60;;;;;;1569998;74;715;-65
2024/04/25 09:46:16;;;;;;;;;;;19.20;57.50;;;;;;1572579;74;1414;-71
2024/04/25 09:48:19;;;;;;;;;;;19.30;57.50;;;;;;1567366;74;1604;-68
2024/04/25 09:50:23;;;;;;;;;;;19.30;57.50;;;;;;1565191;74;663;-69
2024/04/25 09:52:28;;;;;;;;;;;19.20;57.50;;;;;;1562675;74;1885;-69
2024/04/25 09:54:31;;;;;;;;;;;19.30;57.50;;;;;;1564832;74;763;-69
2024/04/25 09:56:33;;;;;;;;;;;19.30;57.50;;;;;;1566519;74;682;-70
2024/04/25 09:58:45;;;;;;;;;;;19.30;57.50;;;;;;1560725;74;1931;-66
2024/04/25 10:00:47;;;;;;;;;;;19.30;57.50;;;;;;1563722;74;1176;-68
2024/04/25 10:02:49;;;;;;;;;;;19.20;57.40;;;;;;1563806;74;651;-67
2024/04/25 10:04:51;;;;;;;;;;;19.30;57.50;;;;;;1575607;74;779;-69
2024/04/25 10:06:53;;;;;;;;;;;19.30;57.50;;;;;;1565995;74;661;-68
2024/04/25 10:08:57;;;;;;;;;;;19.30;57.40;;;;;;1562667;74;795;-70
2024/04/25 10:10:58;;;;;;;;;;;19.30;57.40;;;;;;1556737;74;1147;-68
2024/04/25 10:13:00;;;;;;;;;;;19.30;57.40;;;;;;1562897;74;1556;-69
2024/04/25 10:15:03;;;;;;;;;;;19.30;57.40;;;;;;1571347;74;683;-68
2024/04/25 10:17:05;;;;;;;;;;;19.20;57.40;;;;;;1563013;74;1926;-70
2024/04/25 10:19:07;;;;;;;;;;;19.20;56.80;;;;;;1570826;74;801;-71
2024/04/25 10:21:09;;;;;;;;;;;19.30;56.80;;;;;;1569545;74;1120;-68
2024/04/25 10:23:11;;;;;;;;;;;19.30;56.80;;;;;;1571938;74;737;-68
2024/04/25 10:25:14;;;;;;;;;;;19.30;56.80;;;;;;1559172;74;815;-71
2024/04/25 10:27:18;;;;;;;;;;;19.30;56.80;;;;;;1563641;74;1580;-69
2024/04/25 10:29:22;;;;;;;;;;;19.30;56.80;;;;;;1563288;74;716;-70
2024/04/25 10:31:25;;;;;;;;;;;19.30;56.80;;;;;;1563932;74;2067;-69
2024/04/25 10:33:27;;;;;;;;;;;19.30;56.80;;;;;;1561139;74;1783;-68
2024/04/25 10:35:36;;;;;;;;;;;19.20;56.70;;;;;;1575619;74;814;-69
2024/04/25 10:37:38;;;;;;;;;;;19.20;56.70;;;;;;1562151;74;1910;-69
2024/04/25 10:39:41;;;;;;;;;;;19.30;56.80;;;;;;1556820;74;793;-67
2024/04/25 10:41:43;;;;;;;;;;;19.20;56.70;;;;;;1565176;74;1797;-70
2024/04/25 10:43:46;;;;;;;;;;;19.30;56.80;;;;;;1560355;74;670;-70
2024/04/25 10:45:48;;;;;;;;;;;19.30;56.70;;;;;;1560867;74;664;-69
2024/04/25 10:47:50;;;;;;;;;;;19.30;56.70;;;;;;1561444;74;672;-69
2024/04/25 10:49:53;;;;;;;;;;;19.30;56.70;;;;;;1562079;74;1133;-69
2024/04/25 10:51:55;;;;;;;;;;;19.20;56.60;;;;;;1564353;74;1357;-69
2024/04/25 10:53:57;;;;;;;;;;;19.30;56.70;;;;;;1568373;74;1353;-68
2024/04/25 10:55:59;;;;;;;;;;;19.20;56.50;;;;;;1568360;74;1564;-69
2024/04/25 10:58:02;;;;;;;;;;;19.30;56.60;;;;;;1563844;74;1939;-69
2024/04/25 11:00:06;;;;;;;;;;;19.20;56.50;;;;;;1564864;74;1652;-70
2024/04/25 11:02:12;;;;;;;;;;;19.20;56.60;;;;;;1563979;74;1343;-70
2024/04/25 11:04:11;;;;;;;;;;;19.30;56.60;;;;;;1561311;74;1540;-70
2024/04/25 11:06:15;;;;;;;;;;;19.20;56.50;;;;;;1568203;74;924;-69
2024/04/25 11:08:17;;;;;;;;;;;19.20;56.50;;;;;;1564828;74;1135;-71
2024/04/25 11:10:19;;;;;;;;;;;19.20;56.50;;;;;;1572100;74;1625;-72
2024/04/25 11:12:21;;;;;;;;;;;19.20;56.40;;;;;;1563977;74;1473;-69
2024/04/25 11:14:23;;;;;;;;;;;19.20;56.50;;;;;;1564153;74;771;-72
2024/04/25 11:16:27;;;;;;;;;;;19.20;56.50;;;;;;1559995;74;815;-70
2024/04/25 11:18:29;;;;;;;;;;;19.20;56.50;;;;;;1567052;74;1951;-70
2024/04/25 11:20:31;;;;;;;;;;;19.20;56.50;;;;;;1561755;74;1170;-69
2024/04/25 11:22:35;;;;;;;;;;;19.20;56.40;;;;;;1560904;74;723;-70
2024/04/25 11:24:36;;;;;;;;;;;19.20;56.50;;;;;;1565704;74;896;-70
2024/04/25 11:26:38;;;;;;;;;;;19.20;56.40;;;;;;1573157;74;1561;-69
2024/04/25 11:28:40;;;;;;;;;;;19.20;56.40;;;;;;1553623;74;718;-72
2024/04/25 11:30:42;;;;;;;;;;;19.20;56.40;;;;;;1560419;74;1081;-72
2024/04/25 11:32:45;;;;;;;;;;;19.20;56.40;;;;;;1539800;76;719;-71
2024/04/25 11:34:47;;;;;;;;;;;19.20;56.40;;;;;;1540130;76;1341;-69
2024/04/25 11:37:00;;;;;;;;;;;19.20;56.40;;;;;;1554059;74;668;-68
2024/04/25 11:39:02;;;;;;;;;;;19.20;56.40;;;;;;1562083;74;1900;-68
2024/04/25 11:41:04;;;;;;;;;;;19.20;56.40;;;;;;1555692;74;1458;-69
2024/04/25 11:43:06;;;;;;;;;;;19.20;56.40;;;;;;1555605;74;676;-71
2024/04/25 11:45:08;;;;;;;;;;;19.20;56.40;;;;;;1558970;74;760;-71
2024/04/25 11:47:10;;;;;;;;;;;19.20;56.40;;;;;;1557811;74;667;-70
2024/04/25 11:49:12;;;;;;;;;;;19.20;56.30;;;;;;1550796;74;689;-71
2024/04/25 11:51:14;;;;;;;;;;;19.20;56.40;;;;;;1559408;74;1438;-70
2024/04/25 11:53:16;;;;;;;;;;;19.20;56.30;;;;;;1547489;74;862;-74
2024/04/25 11:55:17;;;;;;;;;;;19.20;56.30;;;;;;1556038;74;1567;-70
2024/04/25 11:57:19;;;;;;;;;;;19.20;56.30;;;;;;1561971;74;1483;-68
2024/04/25 11:59:21;;;;;;;;;;;19.20;56.30;;;;;;1555310;74;1596;-69
2024/04/25 12:01:23;;;;;;;;;;;19.30;56.40;;;;;;1559476;74;1132;-69
2024/04/25 12:03:25;;;;;;;;;;;19.20;56.30;;;;;;1566301;74;1599;-70
2024/04/25 12:05:27;;;;;;;;;;;19.20;56.30;;;;;;1565011;74;1340;-70
2024/04/25 12:07:29;;;;;;;;;;;19.60;56.50;;;;;;1563174;74;1465;-71
2024/04/25 12:09:31;;;;;;;;;;;19.20;56.20;;;;;;1553258;74;1656;-71
2024/04/25 12:11:35;;;;;;;;;;;19.20;56.30;;;;;;1546040;74;1125;-68